createdAt,value
2023-03-10T00:00:07.369Z,1.35
2023-03-10T00:01:07.357Z,1.36
2023-03-10T00:02:07.355Z,1.36
2023-03-10T00:03:07.367Z,1.36
2023-03-10T00:04:07.397Z,1.35
2023-03-10T00:05:07.314Z,1.36
2023-03-10T00:06:07.409Z,1.36
2023-03-10T00:07:07.292Z,1.36
2023-03-10T00:08:07.318Z,1.36
2023-03-10T00:09:07.272Z,1.36
2023-03-10T00:10:07.278Z,1.36
2023-03-10T00:11:07.254Z,1.36
2023-03-10T00:12:07.257Z,1.36
2023-03-10T00:13:07.230Z,1.39
2023-03-10T00:14:07.219Z,1.36
2023-03-10T00:15:07.214Z,1.35
2023-03-10T00:16:07.257Z,1.38
2023-03-10T00:17:07.186Z,1.36
2023-03-10T00:18:07.183Z,1.36
2023-03-10T00:19:07.164Z,1.36
2023-03-10T00:20:07.159Z,1.36
2023-03-10T00:21:07.144Z,1.38
2023-03-10T00:22:07.133Z,1.36
2023-03-10T00:23:07.118Z,1.35
2023-03-10T00:24:07.139Z,1.36
2023-03-10T00:25:07.097Z,1.35
2023-03-10T00:26:07.088Z,1.36
2023-03-10T00:27:07.078Z,1.36
2023-03-10T00:28:07.073Z,1.38
2023-03-10T00:29:07.053Z,1.39
2023-03-10T00:30:07.047Z,1.35
2023-03-10T00:31:07.102Z,1.36
2023-03-10T00:32:07.027Z,1.38
2023-03-10T00:33:07.013Z,1.35
2023-03-10T00:34:07.017Z,1.39
2023-03-10T00:35:06.989Z,1.39
2023-03-10T00:36:07.067Z,1.39
2023-03-10T00:37:06.971Z,1.36
2023-03-10T00:38:06.963Z,1.38
2023-03-10T00:39:06.949Z,1.39
2023-03-10T00:40:06.964Z,1.39
2023-03-10T00:41:06.928Z,1.38
2023-03-10T00:42:06.924Z,1.39
2023-03-10T00:43:06.906Z,1.38
2023-03-10T00:44:06.905Z,1.36
2023-03-10T00:45:06.887Z,1.39
2023-03-10T00:46:07.034Z,1.39
2023-03-10T00:47:06.871Z,1.36
2023-03-10T00:48:06.855Z,1.36
2023-03-10T00:49:06.845Z,1.38
2023-03-10T00:50:06.834Z,1.38
2023-03-10T00:51:06.832Z,1.39
2023-03-10T00:52:06.813Z,1.36
2023-03-10T00:53:06.808Z,1.35
2023-03-10T00:54:06.794Z,1.38
2023-03-10T00:55:06.775Z,1.39
2023-03-10T00:56:06.790Z,1.38
2023-03-10T00:57:06.757Z,1.38
2023-03-10T00:58:06.747Z,1.36
2023-03-10T00:59:06.734Z,1.36
2023-03-10T01:00:06.730Z,1.38
2023-03-10T01:01:06.713Z,1.38
2023-03-10T01:02:06.759Z,1.38
2023-03-10T01:03:06.690Z,1.38
2023-03-10T01:04:06.781Z,1.38
2023-03-10T01:05:06.669Z,1.39
2023-03-10T01:06:06.660Z,1.36
2023-03-10T01:07:06.644Z,1.39
2023-03-10T01:08:06.639Z,1.38
2023-03-10T01:09:06.630Z,1.42
2023-03-10T01:10:06.613Z,1.38
2023-03-10T01:11:06.602Z,1.38
2023-03-10T01:12:06.616Z,1.39
2023-03-10T01:13:06.579Z,1.39
2023-03-10T01:14:06.573Z,1.39
2023-03-10T01:15:06.560Z,1.38
2023-03-10T01:16:06.601Z,1.42
2023-03-10T01:17:06.561Z,1.39
2023-03-10T01:18:06.527Z,1.39
2023-03-10T01:19:06.530Z,1.42
2023-03-10T01:20:06.543Z,1.39
2023-03-10T01:21:06.494Z,1.38
2023-03-10T01:22:06.482Z,1.38
2023-03-10T01:23:06.473Z,1.39
2023-03-10T01:24:06.462Z,1.39
2023-03-10T01:25:06.448Z,1.42
2023-03-10T01:26:06.448Z,1.38
2023-03-10T01:27:06.427Z,1.38
2023-03-10T01:28:06.444Z,1.38
2023-03-10T01:29:06.409Z,1.39
2023-03-10T01:30:06.414Z,1.38
2023-03-10T01:31:06.420Z,1.39
2023-03-10T01:32:06.384Z,1.39
2023-03-10T01:33:06.363Z,1.42
2023-03-10T01:34:06.353Z,1.38
2023-03-10T01:35:06.343Z,1.38
2023-03-10T01:36:06.435Z,1.38
2023-03-10T01:37:06.321Z,1.36
2023-03-10T01:38:06.310Z,1.38
2023-03-10T01:39:06.298Z,1.36
2023-03-10T01:40:06.296Z,1.39
2023-03-10T01:41:06.278Z,1.38
2023-03-10T01:42:06.266Z,1.38
2023-03-10T01:43:06.258Z,1.39
2023-03-10T01:44:06.266Z,1.39
2023-03-10T01:45:06.230Z,1.38
2023-03-10T01:46:06.290Z,1.39
2023-03-10T01:47:06.207Z,1.38
2023-03-10T01:48:06.205Z,1.38
2023-03-10T01:49:06.187Z,1.38
2023-03-10T01:50:06.177Z,1.36
2023-03-10T01:51:06.166Z,1.39
2023-03-10T01:52:06.160Z,1.38
2023-03-10T01:53:06.147Z,1.39
2023-03-10T01:54:06.146Z,1.38
2023-03-10T01:55:06.140Z,1.38
2023-03-10T01:56:06.113Z,1.39
2023-03-10T01:57:06.119Z,1.38
2023-03-10T01:58:06.090Z,1.38
2023-03-10T01:59:06.075Z,1.36
2023-03-10T02:00:06.091Z,1.39
2023-03-10T02:01:06.078Z,1.38
2023-03-10T02:02:06.099Z,1.36
2023-03-10T02:03:06.034Z,1.38
2023-03-10T02:04:06.023Z,1.38
2023-03-10T02:05:06.014Z,1.38
2023-03-10T02:06:06.012Z,1.38
2023-03-10T02:07:05.994Z,1.39
2023-03-10T02:08:05.982Z,1.39
2023-03-10T02:09:05.976Z,1.36
2023-03-10T02:10:05.956Z,1.38
2023-03-10T02:11:05.951Z,1.39
2023-03-10T02:12:05.937Z,1.38
2023-03-10T02:13:05.929Z,1.42
2023-03-10T02:14:05.919Z,1.38
2023-03-10T02:15:05.913Z,1.38
2023-03-10T02:16:05.993Z,1.42
2023-03-10T02:17:05.885Z,1.42
2023-03-10T02:18:05.928Z,1.38
2023-03-10T02:19:05.864Z,1.38
2023-03-10T02:20:05.853Z,1.39
2023-03-10T02:21:05.841Z,1.38
2023-03-10T02:22:05.837Z,1.38
2023-03-10T02:23:05.822Z,1.36
2023-03-10T02:24:05.808Z,1.38
2023-03-10T02:25:05.801Z,1.39
2023-03-10T02:26:05.789Z,1.36
2023-03-10T02:27:05.794Z,1.38
2023-03-10T02:28:05.768Z,1.39
2023-03-10T02:29:05.758Z,1.38
2023-03-10T02:30:05.745Z,1.38
2023-03-10T02:31:05.742Z,1.36
2023-03-10T02:32:05.843Z,1.36
2023-03-10T02:33:05.721Z,1.38
2023-03-10T02:34:05.701Z,1.38
2023-03-10T02:35:05.696Z,1.38
2023-03-10T02:36:05.739Z,1.36
2023-03-10T02:37:05.671Z,1.39
2023-03-10T02:38:05.658Z,1.39
2023-03-10T02:39:05.651Z,1.39
2023-03-10T02:40:05.642Z,1.36
2023-03-10T02:41:05.630Z,1.39
2023-03-10T02:42:05.614Z,1.36
2023-03-10T02:43:05.604Z,1.36
2023-03-10T02:44:05.593Z,1.38
2023-03-10T02:45:05.583Z,1.38
2023-03-10T02:46:05.663Z,1.38
2023-03-10T02:47:05.563Z,1.36
2023-03-10T02:48:05.570Z,1.36
2023-03-10T02:49:05.546Z,1.38
2023-03-10T02:50:05.525Z,1.38
2023-03-10T02:51:05.521Z,1.36
2023-03-10T02:52:05.504Z,1.36
2023-03-10T02:53:05.498Z,1.35
2023-03-10T02:54:05.483Z,1.36
2023-03-10T02:55:05.473Z,1.38
2023-03-10T02:56:05.472Z,1.36
2023-03-10T02:57:05.451Z,1.36
2023-03-10T02:58:05.437Z,1.36
2023-03-10T02:59:05.433Z,1.34
2023-03-10T03:00:05.414Z,1.35
2023-03-10T03:01:05.498Z,1.35
2023-03-10T03:02:05.396Z,1.34
2023-03-10T03:03:05.390Z,1.34
2023-03-10T03:04:05.603Z,1.35
2023-03-10T03:05:05.364Z,1.34
2023-03-10T03:06:05.353Z,1.35
2023-03-10T03:07:05.341Z,1.36
2023-03-10T03:08:05.332Z,1.36
2023-03-10T03:09:05.318Z,1.36
2023-03-10T03:10:05.406Z,1.32
2023-03-10T03:11:05.317Z,1.34
2023-03-10T03:12:05.318Z,1.34
2023-03-10T03:13:05.276Z,1.34
2023-03-10T03:14:05.267Z,1.34
2023-03-10T03:15:05.255Z,1.34
2023-03-10T03:16:05.240Z,1.34
2023-03-10T03:17:05.273Z,1.34
2023-03-10T03:18:05.219Z,1.35
2023-03-10T03:19:05.220Z,1.35
2023-03-10T03:20:05.294Z,1.35
2023-03-10T03:21:05.192Z,1.34
2023-03-10T03:22:05.228Z,1.34
2023-03-10T03:23:05.166Z,1.34
2023-03-10T03:24:05.154Z,1.35
2023-03-10T03:25:05.145Z,1.35
2023-03-10T03:26:05.135Z,1.35
2023-03-10T03:27:05.122Z,1.34
2023-03-10T03:28:05.112Z,1.34
2023-03-10T03:29:05.107Z,1.34
2023-03-10T03:30:05.091Z,1.36
2023-03-10T03:31:05.086Z,1.34
2023-03-10T03:32:05.184Z,1.34
2023-03-10T03:33:05.056Z,1.34
2023-03-10T03:34:05.048Z,1.32
2023-03-10T03:35:05.036Z,1.32
2023-03-10T03:36:05.089Z,1.32
2023-03-10T03:37:05.016Z,1.32
2023-03-10T03:38:05.017Z,1.32
2023-03-10T03:39:04.991Z,1.34
2023-03-10T03:40:04.981Z,1.34
2023-03-10T03:41:04.969Z,1.34
2023-03-10T03:42:04.983Z,1.32
2023-03-10T03:43:05.004Z,1.32
2023-03-10T03:44:05.054Z,1.32
2023-03-10T03:45:05.042Z,1.34
2023-03-10T03:46:05.129Z,1.35
2023-03-10T03:47:05.042Z,1.34
2023-03-10T03:48:05.083Z,1.32
2023-03-10T03:49:04.931Z,1.32
2023-03-10T03:50:04.873Z,1.32
2023-03-10T03:51:04.859Z,1.34
2023-03-10T03:52:04.874Z,1.32
2023-03-10T03:53:04.841Z,1.34
2023-03-10T03:54:04.831Z,1.32
2023-03-10T03:55:04.832Z,1.34
2023-03-10T03:56:04.808Z,1.34
2023-03-10T03:57:04.803Z,1.34
2023-03-10T03:58:04.796Z,1.32
2023-03-10T03:59:04.779Z,1.34
2023-03-10T04:00:04.809Z,1.34
2023-03-10T04:01:04.758Z,1.32
2023-03-10T04:02:04.813Z,1.34
2023-03-10T04:03:04.736Z,1.31
2023-03-10T04:04:04.729Z,1.29
2023-03-10T04:05:04.724Z,1.31
2023-03-10T04:06:04.697Z,1.31
2023-03-10T04:07:04.687Z,1.34
2023-03-10T04:08:04.709Z,1.32
2023-03-10T04:09:04.675Z,1.32
2023-03-10T04:10:04.662Z,1.32
2023-03-10T04:11:04.647Z,1.32
2023-03-10T04:12:04.633Z,1.32
2023-03-10T04:13:04.625Z,1.32
2023-03-10T04:14:04.619Z,1.31
2023-03-10T04:15:04.605Z,1.31
2023-03-10T04:16:04.601Z,1.34
2023-03-10T04:17:04.595Z,1.32
2023-03-10T04:18:04.575Z,1.32
2023-03-10T04:19:04.560Z,1.32
2023-03-10T04:20:07.470Z,1.32
2023-03-10T04:21:04.539Z,1.32
2023-03-10T04:22:04.524Z,1.29
2023-03-10T04:23:04.517Z,1.34
2023-03-10T04:24:04.534Z,1.34
2023-03-10T04:25:04.495Z,1.32
2023-03-10T04:26:04.483Z,1.32
2023-03-10T04:27:04.474Z,1.32
2023-03-10T04:28:04.462Z,1.34
2023-03-10T04:29:04.460Z,1.32
2023-03-10T04:30:04.459Z,1.34
2023-03-10T04:31:04.549Z,1.32
2023-03-10T04:32:05.859Z,1.32
2023-03-10T04:33:04.410Z,1.31
2023-03-10T04:34:04.407Z,1.32
2023-03-10T04:35:04.388Z,1.31
2023-03-10T04:36:04.490Z,1.31
2023-03-10T04:37:04.370Z,1.32
2023-03-10T04:38:04.375Z,1.31
2023-03-10T04:39:04.346Z,1.31
2023-03-10T04:40:04.360Z,1.32
2023-03-10T04:41:04.322Z,1.34
2023-03-10T04:42:04.321Z,1.34
2023-03-10T04:43:04.308Z,1.29
2023-03-10T04:44:04.291Z,1.32
2023-03-10T04:45:04.280Z,1.32
2023-03-10T04:46:04.315Z,1.31
2023-03-10T04:47:04.258Z,1.31
2023-03-10T04:48:04.245Z,1.32
2023-03-10T04:49:04.236Z,1.31
2023-03-10T04:50:04.223Z,1.31
2023-03-10T04:51:04.214Z,1.32
2023-03-10T04:52:04.205Z,1.32
2023-03-10T04:53:04.217Z,1.32
2023-03-10T04:54:04.190Z,1.34
2023-03-10T04:55:04.171Z,1.31
2023-03-10T04:56:04.184Z,1.32
2023-03-10T04:57:04.150Z,1.31
2023-03-10T04:58:04.138Z,1.34
2023-03-10T04:59:04.139Z,1.32
2023-03-10T05:00:04.579Z,1.31
2023-03-10T05:01:04.197Z,1.29
2023-03-10T05:02:04.145Z,1.31
2023-03-10T05:03:04.085Z,1.32
2023-03-10T05:04:04.103Z,1.31
2023-03-10T05:05:04.061Z,1.34
2023-03-10T05:06:04.046Z,1.31
2023-03-10T05:07:04.042Z,1.32
2023-03-10T05:08:04.031Z,1.34
2023-03-10T05:09:04.021Z,1.32
2023-03-10T05:10:04.003Z,1.32
2023-03-10T05:11:03.997Z,1.31
2023-03-10T05:12:04.024Z,1.31
2023-03-10T05:13:03.974Z,1.32
2023-03-10T05:14:03.960Z,1.31
2023-03-10T05:15:03.953Z,1.32
2023-03-10T05:16:03.995Z,1.32
2023-03-10T05:17:03.943Z,1.32
2023-03-10T05:18:03.917Z,1.32
2023-03-10T05:19:03.932Z,1.34
2023-03-10T05:20:03.895Z,1.32
2023-03-10T05:21:03.885Z,1.32
2023-03-10T05:22:03.879Z,1.32
2023-03-10T05:23:03.862Z,1.34
2023-03-10T05:24:03.850Z,1.32
2023-03-10T05:25:03.856Z,1.32
2023-03-10T05:26:03.830Z,1.32
2023-03-10T05:27:03.818Z,1.32
2023-03-10T05:28:03.832Z,1.34
2023-03-10T05:29:03.800Z,1.32
2023-03-10T05:30:03.789Z,1.32
2023-03-10T05:31:03.842Z,1.31
2023-03-10T05:32:03.760Z,1.32
2023-03-10T05:33:03.754Z,1.32
2023-03-10T05:34:03.739Z,1.35
2023-03-10T05:35:03.732Z,1.32
2023-03-10T05:36:03.779Z,1.32
2023-03-10T05:37:03.714Z,1.32
2023-03-10T05:38:03.697Z,1.32
2023-03-10T05:39:03.687Z,1.32
2023-03-10T05:40:03.674Z,1.32
2023-03-10T05:41:03.668Z,1.32
2023-03-10T05:42:03.667Z,1.32
2023-03-10T05:43:03.643Z,1.32
2023-03-10T05:44:03.663Z,1.32
2023-03-10T05:45:03.623Z,1.34
2023-03-10T05:46:03.614Z,1.32
2023-03-10T05:47:03.724Z,1.32
2023-03-10T05:48:03.588Z,1.31
2023-03-10T05:49:03.582Z,1.34
2023-03-10T05:50:03.567Z,1.32
2023-03-10T05:51:03.573Z,1.32
2023-03-10T05:52:03.557Z,1.34
2023-03-10T05:53:03.551Z,1.32
2023-03-10T05:54:03.524Z,1.32
2023-03-10T05:55:03.514Z,1.34
2023-03-10T05:56:03.502Z,1.32
2023-03-10T05:57:03.494Z,1.32
2023-03-10T05:58:03.479Z,1.31
2023-03-10T05:59:03.469Z,1.34
2023-03-10T06:00:03.487Z,1.32
2023-03-10T06:01:03.471Z,1.31
2023-03-10T06:02:03.443Z,1.32
2023-03-10T06:03:03.451Z,1.32
2023-03-10T06:04:03.460Z,1.32
2023-03-10T06:05:03.406Z,1.36
2023-03-10T06:06:03.396Z,1.34
2023-03-10T06:07:03.388Z,1.34
2023-03-10T06:08:03.385Z,1.35
2023-03-10T06:09:03.380Z,1.32
2023-03-10T06:10:03.348Z,1.34
2023-03-10T06:11:03.500Z,1.34
2023-03-10T06:12:03.328Z,1.35
2023-03-10T06:13:03.322Z,1.35
2023-03-10T06:14:03.343Z,1.36
2023-03-10T06:15:03.312Z,1.35
2023-03-10T06:16:03.380Z,1.35
2023-03-10T06:17:03.278Z,1.35
2023-03-10T06:18:03.261Z,1.35
2023-03-10T06:19:03.253Z,1.36
2023-03-10T06:20:03.240Z,1.35
2023-03-10T06:21:03.520Z,1.36
2023-03-10T06:22:03.222Z,1.35
2023-03-10T06:23:03.210Z,1.36
2023-03-10T06:24:03.202Z,1.36
2023-03-10T06:25:03.184Z,1.38
2023-03-10T06:26:03.176Z,1.38
2023-03-10T06:27:03.176Z,1.36
2023-03-10T06:28:03.164Z,1.38
2023-03-10T06:29:03.142Z,1.38
2023-03-10T06:30:03.134Z,1.39
2023-03-10T06:31:03.126Z,1.39
2023-03-10T06:32:03.255Z,1.38
2023-03-10T06:33:03.099Z,1.38
2023-03-10T06:34:04.481Z,1.42
2023-03-10T06:35:03.081Z,1.42
2023-03-10T06:36:03.104Z,1.39
2023-03-10T06:37:03.059Z,1.42
2023-03-10T06:38:03.050Z,1.44
2023-03-10T06:39:03.036Z,1.42
2023-03-10T06:40:03.038Z,1.39
2023-03-10T06:41:03.023Z,1.42
2023-03-10T06:42:03.009Z,1.42
2023-03-10T06:43:02.995Z,1.42
2023-03-10T06:44:02.995Z,1.43
2023-03-10T06:45:02.975Z,1.43
2023-03-10T06:46:03.091Z,1.43
2023-03-10T06:47:02.951Z,1.43
2023-03-10T06:48:02.963Z,1.44
2023-03-10T06:49:02.929Z,1.43
2023-03-10T06:50:02.920Z,1.43
2023-03-10T06:51:02.909Z,1.43
2023-03-10T06:52:02.902Z,1.42
2023-03-10T06:53:02.885Z,1.44
2023-03-10T06:54:02.877Z,1.44
2023-03-10T06:55:02.866Z,1.43
2023-03-10T06:56:02.857Z,1.43
2023-03-10T06:57:02.855Z,1.39
2023-03-10T06:58:02.835Z,1.42
2023-03-10T06:59:02.821Z,1.43
2023-03-10T07:00:02.814Z,1.42
2023-03-10T07:01:02.850Z,1.42
2023-03-10T07:02:02.792Z,1.42
2023-03-10T07:03:02.782Z,1.42
2023-03-10T07:04:02.919Z,1.42
2023-03-10T07:05:02.904Z,1.43
2023-03-10T07:06:02.761Z,1.43
2023-03-10T07:07:02.736Z,1.44
2023-03-10T07:08:02.728Z,1.42
2023-03-10T07:09:02.751Z,1.43
2023-03-10T07:10:02.703Z,1.43
2023-03-10T07:11:02.688Z,1.43
2023-03-10T07:12:02.687Z,1.42
2023-03-10T07:13:02.666Z,1.43
2023-03-10T07:14:02.664Z,1.43
2023-03-10T07:15:02.645Z,1.43
2023-03-10T07:16:02.635Z,1.42
2023-03-10T07:17:02.685Z,1.39
2023-03-10T07:18:02.614Z,1.42
2023-03-10T07:19:02.613Z,1.43
2023-03-10T07:20:02.608Z,1.42
2023-03-10T07:21:02.576Z,1.42
2023-03-10T07:22:02.572Z,1.43
2023-03-10T07:23:02.557Z,1.42
2023-03-10T07:24:02.543Z,1.39
2023-03-10T07:25:02.551Z,1.43
2023-03-10T07:26:02.529Z,1.43
2023-03-10T07:27:02.518Z,1.42
2023-03-10T07:28:02.524Z,1.42
2023-03-10T07:29:02.488Z,1.42
2023-03-10T07:30:02.476Z,1.43
2023-03-10T07:31:02.568Z,1.44
2023-03-10T07:32:02.487Z,1.43
2023-03-10T07:33:02.450Z,1.42
2023-03-10T07:34:02.437Z,1.44
2023-03-10T07:35:02.441Z,1.43
2023-03-10T07:36:02.547Z,1.44
2023-03-10T07:37:02.403Z,1.44
2023-03-10T07:38:02.391Z,1.42
2023-03-10T07:39:02.382Z,1.39
2023-03-10T07:40:02.370Z,1.42
2023-03-10T07:41:02.355Z,1.43
2023-03-10T07:42:02.364Z,1.43
2023-03-10T07:43:02.346Z,1.42
2023-03-10T07:44:02.330Z,1.39
2023-03-10T07:45:02.314Z,1.42
2023-03-10T07:46:02.325Z,1.46
2023-03-10T07:47:02.290Z,1.43
2023-03-10T07:48:02.289Z,1.43
2023-03-10T07:49:02.271Z,1.42
2023-03-10T07:50:02.261Z,1.42
2023-03-10T07:51:02.250Z,1.44
2023-03-10T07:52:02.415Z,1.43
2023-03-10T07:53:02.226Z,1.43
2023-03-10T07:54:02.222Z,1.42
2023-03-10T07:55:02.203Z,1.43
2023-03-10T07:56:02.195Z,1.43
2023-03-10T07:57:02.182Z,1.42
2023-03-10T07:58:02.183Z,1.43
2023-03-10T07:59:02.161Z,1.42
2023-03-10T08:00:02.172Z,1.43
2023-03-10T08:01:02.148Z,1.43
2023-03-10T08:02:02.138Z,1.42
2023-03-10T08:03:02.209Z,1.43
2023-03-10T08:04:02.267Z,1.42
2023-03-10T08:05:02.198Z,1.43
2023-03-10T08:06:02.086Z,1.44
2023-03-10T08:07:02.087Z,1.43
2023-03-10T08:08:02.094Z,1.42
2023-03-10T08:09:02.070Z,1.43
2023-03-10T08:10:02.044Z,1.44
2023-03-10T08:11:02.040Z,1.44
2023-03-10T08:12:02.027Z,1.44
2023-03-10T08:13:02.008Z,1.43
2023-03-10T08:14:02.167Z,1.42
2023-03-10T08:15:01.994Z,1.43
2023-03-10T08:16:02.106Z,1.43
2023-03-10T08:17:01.976Z,1.44
2023-03-10T08:18:01.976Z,1.44
2023-03-10T08:19:01.947Z,1.43
2023-03-10T08:20:01.978Z,1.46
2023-03-10T08:21:01.935Z,1.43
2023-03-10T08:22:01.914Z,1.44
2023-03-10T08:23:01.899Z,1.44
2023-03-10T08:24:01.969Z,1.43
2023-03-10T08:25:01.877Z,1.42
2023-03-10T08:26:01.875Z,1.43
2023-03-10T08:27:01.860Z,1.44
2023-03-10T08:28:01.847Z,1.46
2023-03-10T08:29:01.832Z,1.44
2023-03-10T08:30:01.831Z,1.44
2023-03-10T08:31:05.251Z,1.43
2023-03-10T08:32:02.010Z,1.44
2023-03-10T08:33:01.897Z,1.46
2023-03-10T08:34:01.783Z,1.44
2023-03-10T08:35:01.771Z,1.46
2023-03-10T08:36:01.790Z,1.44
2023-03-10T08:37:01.757Z,1.43
2023-03-10T08:38:01.740Z,1.44
2023-03-10T08:39:01.724Z,1.46
2023-03-10T08:40:01.747Z,1.43
2023-03-10T08:41:01.702Z,1.46
2023-03-10T08:42:01.727Z,1.46
2023-03-10T08:43:01.689Z,1.44
2023-03-10T08:44:01.676Z,1.46
2023-03-10T08:45:01.666Z,1.44
2023-03-10T08:46:01.675Z,1.44
2023-03-10T08:47:01.720Z,1.44
2023-03-10T08:48:01.627Z,1.46
2023-03-10T08:49:01.661Z,1.44
2023-03-10T08:50:01.626Z,1.46
2023-03-10T08:51:01.596Z,1.43
2023-03-10T08:52:01.587Z,1.46
2023-03-10T08:53:01.581Z,1.46
2023-03-10T08:54:01.570Z,1.46
2023-03-10T08:55:01.556Z,1.47
2023-03-10T08:56:01.580Z,1.46
2023-03-10T08:57:01.531Z,1.46
2023-03-10T08:58:01.523Z,1.46
2023-03-10T08:59:01.526Z,1.46
2023-03-10T09:00:01.503Z,1.46
2023-03-10T09:01:01.493Z,1.46
2023-03-10T09:02:01.581Z,1.46
2023-03-10T09:03:01.525Z,1.44
2023-03-10T09:04:01.477Z,1.47
2023-03-10T09:05:01.609Z,1.47
2023-03-10T09:06:01.438Z,1.46
2023-03-10T09:07:01.422Z,1.44
2023-03-10T09:08:01.434Z,1.49
2023-03-10T09:09:01.406Z,1.49
2023-03-10T09:10:01.413Z,1.47
2023-03-10T09:11:01.382Z,1.49
2023-03-10T09:12:01.407Z,1.50
2023-03-10T09:13:13.360Z,1.50
2023-03-10T09:14:01.428Z,1.53
2023-03-10T09:15:01.337Z,1.54
2023-03-10T09:16:01.385Z,1.54
2023-03-10T09:17:01.381Z,1.54
2023-03-10T09:18:01.306Z,1.54
2023-03-10T09:19:01.293Z,1.60
2023-03-10T09:20:01.295Z,1.61
2023-03-10T09:21:01.276Z,1.61
2023-03-10T09:22:01.266Z,1.63
2023-03-10T09:23:01.252Z,1.61
2023-03-10T09:24:01.254Z,1.63
2023-03-10T09:25:01.230Z,1.63
2023-03-10T09:26:01.215Z,1.64
2023-03-10T09:27:01.206Z,1.61
2023-03-10T09:28:01.216Z,1.65
2023-03-10T09:29:01.186Z,1.63
2023-03-10T09:30:01.675Z,1.64
2023-03-10T09:31:01.158Z,1.63
2023-03-10T09:32:01.260Z,1.65
2023-03-10T09:33:01.238Z,1.65
2023-03-10T09:34:01.139Z,1.67
2023-03-10T09:35:01.116Z,1.70
2023-03-10T09:36:08.245Z,1.67
2023-03-10T09:37:02.129Z,1.70
2023-03-10T09:38:01.093Z,1.68
2023-03-10T09:39:01.145Z,1.70
2023-03-10T09:40:01.073Z,1.74
2023-03-10T09:41:01.060Z,1.71
2023-03-10T09:42:01.051Z,1.74
2023-03-10T09:43:01.031Z,1.72
2023-03-10T09:44:01.071Z,1.72
2023-03-10T09:45:01.009Z,1.75
2023-03-10T09:46:01.023Z,1.77
2023-03-10T09:47:01.010Z,1.81
2023-03-10T09:48:02.515Z,1.81
2023-03-10T09:49:00.965Z,1.81
2023-03-10T09:50:00.958Z,1.82
2023-03-10T09:51:00.951Z,1.81
2023-03-10T09:52:00.938Z,1.81
2023-03-10T09:53:00.922Z,1.79
2023-03-10T09:54:00.915Z,1.82
2023-03-10T09:55:00.901Z,1.83
2023-03-10T09:56:00.889Z,1.81
2023-03-10T09:57:00.876Z,1.79
2023-03-10T09:58:02.545Z,1.77
2023-03-10T09:59:00.854Z,1.77
2023-03-10T10:00:00.868Z,1.75
2023-03-10T10:01:00.837Z,1.75
2023-03-10T10:02:00.833Z,1.71
2023-03-10T10:03:00.862Z,1.70
2023-03-10T10:04:00.970Z,1.72
2023-03-10T10:05:03.620Z,1.74
2023-03-10T10:06:00.783Z,1.74
2023-03-10T10:07:00.773Z,1.74
2023-03-10T10:08:00.801Z,1.74
2023-03-10T10:09:05.311Z,1.74
2023-03-10T10:10:00.753Z,1.75
2023-03-10T10:11:00.724Z,1.77
2023-03-10T10:12:00.712Z,1.77
2023-03-10T10:13:00.708Z,1.81
2023-03-10T10:14:01.768Z,1.82
2023-03-10T10:15:00.681Z,1.79
2023-03-10T10:16:18.327Z,1.82
2023-03-10T10:17:01.780Z,1.82
2023-03-10T10:18:12.047Z,1.81
2023-03-10T10:19:00.725Z,1.81
2023-03-10T10:20:00.633Z,1.82
2023-03-10T10:21:00.617Z,1.83
2023-03-10T10:22:00.600Z,1.85
2023-03-10T10:23:00.597Z,1.89
2023-03-10T10:24:00.678Z,1.89
2023-03-10T10:25:00.564Z,1.88
2023-03-10T10:26:02.539Z,1.88
2023-03-10T10:27:00.548Z,1.86
2023-03-10T10:28:00.550Z,1.88
2023-03-10T10:29:00.559Z,1.89
2023-03-10T10:30:00.519Z,1.90
2023-03-10T10:31:00.540Z,1.90
2023-03-10T10:32:00.513Z,1.89
2023-03-10T10:33:00.481Z,1.92
2023-03-10T10:34:00.493Z,1.89
2023-03-10T10:35:00.457Z,1.92
2023-03-10T10:36:00.547Z,1.90
2023-03-10T10:37:00.432Z,1.92
2023-03-10T10:38:00.423Z,1.95
2023-03-10T10:39:00.414Z,2.00
2023-03-10T10:40:00.414Z,2.01
2023-03-10T10:41:00.395Z,2.02
2023-03-10T10:42:00.382Z,2.05
2023-03-10T10:43:00.377Z,2.07
2023-03-10T10:44:00.370Z,2.07
2023-03-10T10:45:00.348Z,2.07
2023-03-10T10:46:00.363Z,2.14
2023-03-10T10:47:00.337Z,2.15
2023-03-10T10:48:00.343Z,2.12
2023-03-10T10:49:00.762Z,2.18
2023-03-10T10:50:00.291Z,2.18
2023-03-10T10:51:01.072Z,2.14
2023-03-10T10:52:00.269Z,2.14
2023-03-10T10:53:00.266Z,2.12
2023-03-10T10:54:00.248Z,2.09
2023-03-10T10:55:00.238Z,2.12
2023-03-10T10:56:00.229Z,2.11
2023-03-10T10:57:00.221Z,2.09
2023-03-10T10:58:01.709Z,2.05
2023-03-10T10:59:00.199Z,2.07
2023-03-10T11:00:00.190Z,2.02
2023-03-10T11:01:00.220Z,2.04
2023-03-10T11:02:00.174Z,2.04
2023-03-10T11:03:00.156Z,2.05
2023-03-10T11:04:00.217Z,2.05
2023-03-10T11:05:00.159Z,2.09
2023-03-10T11:06:00.169Z,2.12
2023-03-10T11:07:00.196Z,2.14
2023-03-10T11:08:00.218Z,2.15
2023-03-10T11:09:00.208Z,2.18
2023-03-10T11:10:00.232Z,2.18
2023-03-10T11:11:00.221Z,2.14
2023-03-10T11:12:00.212Z,2.12
2023-03-10T11:13:00.080Z,2.09
2023-03-10T11:14:00.035Z,2.14
2023-03-10T11:15:00.026Z,2.19
2023-03-10T11:16:00.095Z,2.20
2023-03-10T11:17:00.006Z,2.25
2023-03-10T11:17:59.989Z,2.20
2023-03-10T11:18:59.979Z,2.18
2023-03-10T11:19:59.993Z,2.20
2023-03-10T11:20:59.969Z,2.22
2023-03-10T11:21:59.959Z,2.23
2023-03-10T11:22:59.938Z,2.25
2023-03-10T11:23:59.936Z,2.19
2023-03-10T11:24:59.916Z,2.18
2023-03-10T11:25:59.903Z,2.19
2023-03-10T11:26:59.900Z,2.20
2023-03-10T11:27:59.880Z,2.20
2023-03-10T11:28:59.944Z,2.19
2023-03-10T11:29:59.856Z,2.18
2023-03-10T11:30:59.932Z,2.14
2023-03-10T11:31:59.890Z,2.19
2023-03-10T11:32:59.827Z,2.22
2023-03-10T11:33:59.827Z,2.25
2023-03-10T11:34:59.809Z,2.26
2023-03-10T11:36:01.153Z,2.25
2023-03-10T11:36:59.782Z,2.29
2023-03-10T11:37:59.776Z,2.36
2023-03-10T11:38:59.767Z,2.33
2023-03-10T11:39:59.750Z,2.36
2023-03-10T11:40:59.743Z,2.29
2023-03-10T11:41:59.794Z,2.32
2023-03-10T11:42:59.721Z,2.40
2023-03-10T11:43:59.710Z,2.44
2023-03-10T11:44:59.699Z,2.48
2023-03-10T11:45:59.827Z,2.43
2023-03-10T11:46:59.679Z,2.47
2023-03-10T11:47:59.691Z,2.53
2023-03-10T11:48:59.658Z,2.56
2023-03-10T11:49:59.640Z,2.55
2023-03-10T11:50:59.636Z,2.50
2023-03-10T11:51:59.647Z,2.41
2023-03-10T11:52:59.612Z,2.38
2023-03-10T11:53:59.607Z,2.33
2023-03-10T11:54:59.592Z,2.37
2023-03-10T11:55:59.606Z,2.33
2023-03-10T11:56:59.569Z,2.33
2023-03-10T11:57:59.556Z,2.36
2023-03-10T11:58:59.547Z,2.40
2023-03-10T11:59:59.555Z,2.47
2023-03-10T12:00:59.528Z,2.47
2023-03-10T12:01:59.519Z,2.51
2023-03-10T12:02:59.509Z,2.56
2023-03-10T12:03:59.614Z,2.50
2023-03-10T12:04:59.583Z,2.44
2023-03-10T12:05:59.472Z,2.41
2023-03-10T12:06:59.461Z,2.48
2023-03-10T12:07:59.473Z,2.48
2023-03-10T12:08:59.439Z,2.51
2023-03-10T12:09:59.427Z,2.55
2023-03-10T12:10:59.415Z,2.58
2023-03-10T12:11:59.403Z,2.58
2023-03-10T12:12:59.390Z,2.50
2023-03-10T12:13:59.388Z,2.55
2023-03-10T12:14:59.369Z,2.58
2023-03-10T12:15:59.403Z,2.62
2023-03-10T12:16:59.346Z,2.61
2023-03-10T12:17:59.331Z,2.55
2023-03-10T12:18:59.326Z,2.53
2023-03-10T12:19:59.311Z,2.58
2023-03-10T12:20:59.300Z,2.50
2023-03-10T12:21:59.287Z,2.51
2023-03-10T12:22:59.282Z,2.48
2023-03-10T12:23:59.323Z,2.48
2023-03-10T12:24:59.256Z,2.55
2023-03-10T12:25:59.249Z,2.58
2023-03-10T12:26:59.232Z,2.58
2023-03-10T12:27:59.218Z,2.65
2023-03-10T12:28:59.210Z,2.62
2023-03-10T12:29:59.196Z,2.61
2023-03-10T12:30:59.319Z,2.68
2023-03-10T12:31:59.401Z,2.68
2023-03-10T12:32:59.235Z,2.68
2023-03-10T12:33:59.303Z,2.65
2023-03-10T12:34:59.142Z,2.61
2023-03-10T12:35:59.170Z,2.56
2023-03-10T12:36:59.119Z,2.61
2023-03-10T12:37:59.104Z,2.59
2023-03-10T12:38:59.095Z,2.51
2023-03-10T12:39:59.139Z,2.48
2023-03-10T12:40:59.080Z,2.48
2023-03-10T12:41:59.060Z,2.51
2023-03-10T12:42:59.051Z,2.53
2023-03-10T12:43:59.041Z,2.55
2023-03-10T12:44:59.031Z,2.50
2023-03-10T12:45:59.024Z,2.48
2023-03-10T12:46:59.069Z,2.51
2023-03-10T12:47:58.997Z,2.56
2023-03-10T12:48:58.979Z,2.55
2023-03-10T12:49:58.970Z,2.55
2023-03-10T12:50:58.958Z,2.59
2023-03-10T12:51:58.945Z,2.63
2023-03-10T12:52:58.936Z,2.63
2023-03-10T12:53:58.922Z,2.62
2023-03-10T12:54:58.913Z,2.63
2023-03-10T12:55:58.925Z,2.66
2023-03-10T12:56:58.889Z,2.68
2023-03-10T12:57:58.878Z,2.69
2023-03-10T12:58:58.885Z,2.77
2023-03-10T12:59:58.909Z,2.77
2023-03-10T13:00:58.906Z,2.74
2023-03-10T13:01:58.835Z,2.73
2023-03-10T13:02:58.825Z,2.71
2023-03-10T13:03:58.853Z,2.66
2023-03-10T13:04:58.813Z,2.59
2023-03-10T13:05:58.790Z,2.59
2023-03-10T13:06:58.781Z,2.58
2023-03-10T13:07:58.768Z,2.61
2023-03-10T13:08:58.767Z,2.59
2023-03-10T13:09:58.750Z,2.59
2023-03-10T13:10:58.738Z,2.61
2023-03-10T13:11:58.748Z,2.61
2023-03-10T13:12:58.724Z,2.55
2023-03-10T13:13:58.714Z,2.53
2023-03-10T13:14:58.695Z,2.56
2023-03-10T13:15:58.778Z,2.55
2023-03-10T13:16:58.670Z,2.58
2023-03-10T13:17:58.660Z,2.62